Terminal Aerodrome Forecast
Issued by NWS Cleveland, OH

Home | Current Version | Previous Version | Graphics & Text | Print | Product List | Glossary Off
Versions: 1 2 3 4 5 6 7 8 9 10 11 12 13 14 15 16 17 18 19 20 21 22 23 24 25 26

695
FTUS41 KCLE 221140
TAFTOL
TAF
KTOL 221140Z 2212/2312 VRB03KT 2SM BR SCT100
     FM221300 VRB03KT 5SM BR SCT100
     FM221500 06003KT P6SM SCT020
     FM222300 04010KT 3SM BR OVC006=

USA.gov is the U.S. government's official web portal to all federal, state and local government web resources and services.